Time,TemperatureF,DewpointF,PressureIn,WindDirection,WindDirectionDegrees,WindSpeedMPH,WindSpeedGustMPH,Humidity,HourlyPrecipIn,Conditions,Clouds,dailyrainin,SoftwareType,DateUTC
2014-12-27 00:09:00,35.3,34.0,30.28,NE,48,0.0,0.0,95,0.00,,,0.00,weatherlink.com 1.10,2014-12-27 05:09:00,
2014-12-27 00:24:00,35.4,34.0,30.29,NE,48,0.0,0.0,96,0.00,,,0.00,weatherlink.com 1.10,2014-12-27 05:24:00,
2014-12-27 00:39:00,35.1,34.0,30.29,NE,48,1.0,2.0,95,0.00,,,0.00,weatherlink.com 1.10,2014-12-27 05:39:00,
2014-12-27 00:54:00,35.1,34.0,30.29,NE,48,0.0,0.0,96,0.00,,,0.00,weatherlink.com 1.10,2014-12-27 05:54:00,
2014-12-27 01:09:00,34.9,34.0,30.28,NE,48,0.0,0.0,96,0.00,,,0.00,weatherlink.com 1.10,2014-12-27 06:09:00,
2014-12-27 01:24:00,35.1,34.0,30.28,NE,48,0.0,1.0,96,0.00,,,0.00,weatherlink.com 1.10,2014-12-27 06:24:00,
2014-12-27 01:39:00,35.0,34.0,30.29,NE,48,0.0,1.0,96,0.00,,,0.00,weatherlink.com 1.10,2014-12-27 06:39:00,
2014-12-27 01:54:00,34.9,34.0,30.29,NE,48,0.0,0.0,96,0.00,,,0.00,weatherlink.com 1.10,2014-12-27 06:54:00,
2014-12-27 02:09:00,35.1,34.0,30.28,NE,48,0.0,1.0,96,0.00,,,0.00,weatherlink.com 1.10,2014-12-27 07:09:00,
2014-12-27 02:24:00,34.8,34.0,30.28,NE,48,0.0,1.0,96,0.00,,,0.00,weatherlink.com 1.10,2014-12-27 07:24:00,
2014-12-27 02:39:00,34.6,34.0,30.28,NE,48,0.0,0.0,96,0.00,,,0.00,weatherlink.com 1.10,2014-12-27 07:39:00,
2014-12-27 02:54:00,34.4,33.0,30.28,NE,48,1.0,1.0,96,0.00,,,0.00,weatherlink.com 1.10,2014-12-27 07:54:00,
2014-12-27 03:09:00,34.4,33.0,30.29,NE,48,0.0,1.0,96,0.00,,,0.00,weatherlink.com 1.10,2014-12-27 08:09:00,
2014-12-27 03:24:00,34.1,33.0,30.30,NE,48,0.0,1.0,96,0.00,,,0.00,weatherlink.com 1.10,2014-12-27 08:24:00,
2014-12-27 03:39:00,34.1,33.0,30.30,NE,48,0.0,0.0,96,0.00,,,0.00,weatherlink.com 1.10,2014-12-27 08:39:00,
2014-12-27 03:54:00,34.2,33.0,30.29,NE,48,0.0,0.0,96,0.00,,,0.00,weatherlink.com 1.10,2014-12-27 08:54:00,
2014-12-27 04:09:00,34.1,33.0,30.29,NE,48,0.0,0.0,96,0.00,,,0.00,weatherlink.com 1.10,2014-12-27 09:09:00,
2014-12-27 04:24:00,34.1,33.0,30.28,NE,48,0.0,0.0,96,0.00,,,0.00,weatherlink.com 1.10,2014-12-27 09:24:00,
2014-12-27 04:39:00,34.2,33.0,30.28,NE,48,0.0,0.0,96,0.00,,,0.00,weatherlink.com 1.10,2014-12-27 09:39:00,
2014-12-27 04:54:00,34.1,33.0,30.28,NE,48,0.0,0.0,96,0.00,,,0.00,weatherlink.com 1.10,2014-12-27 09:54:00,
2014-12-27 05:09:00,34.0,33.0,30.28,NE,48,0.0,0.0,96,0.00,,,0.00,weatherlink.com 1.10,2014-12-27 10:09:00,
2014-12-27 05:24:00,33.9,33.0,30.28,NE,48,0.0,0.0,96,0.00,,,0.00,weatherlink.com 1.10,2014-12-27 10:24:00,
2014-12-27 05:39:00,33.9,33.0,30.28,NE,48,0.0,0.0,97,0.00,,,0.00,weatherlink.com 1.10,2014-12-27 10:39:00,
2014-12-27 05:54:00,33.8,33.0,30.28,NE,48,0.0,0.0,97,0.00,,,0.00,weatherlink.com 1.10,2014-12-27 10:54:00,
2014-12-27 06:09:00,33.9,33.0,30.28,NE,48,0.0,0.0,97,0.00,,,0.00,weatherlink.com 1.10,2014-12-27 11:09:00,
2014-12-27 06:24:00,33.9,33.0,30.29,NE,48,0.0,0.0,97,0.00,,,0.00,weatherlink.com 1.10,2014-12-27 11:24:00,
2014-12-27 06:39:00,33.8,33.0,30.30,NE,48,0.0,0.0,97,0.00,,,0.00,weatherlink.com 1.10,2014-12-27 11:39:00,
2014-12-27 06:54:00,33.8,33.0,30.30,NE,48,0.0,0.0,97,0.00,,,0.00,weatherlink.com 1.10,2014-12-27 11:54:00,
2014-12-27 07:09:00,33.8,33.0,30.30,NE,48,0.0,1.0,97,0.00,,,0.00,weatherlink.com 1.10,2014-12-27 12:09:00,
2014-12-27 07:24:00,33.9,33.0,30.31,NE,48,0.0,1.0,97,0.00,,,0.00,weatherlink.com 1.10,2014-12-27 12:24:00,
2014-12-27 07:39:00,34.1,33.0,30.32,NE,48,0.0,1.0,97,0.00,,,0.00,weatherlink.com 1.10,2014-12-27 12:39:00,
2014-12-27 07:54:00,34.2,34.0,30.32,NE,48,0.0,0.0,97,0.00,,,0.00,weatherlink.com 1.10,2014-12-27 12:54:00,
2014-12-27 08:09:00,34.6,34.0,30.32,NE,48,0.0,0.0,97,0.00,,,0.00,weatherlink.com 1.10,2014-12-27 13:09:00,
2014-12-27 08:24:00,35.5,35.0,30.32,NE,48,0.0,0.0,97,0.00,,,0.00,weatherlink.com 1.10,2014-12-27 13:24:00,
2014-12-27 08:39:00,37.6,37.0,30.33,NE,48,0.0,0.0,98,0.00,,,0.00,weatherlink.com 1.10,2014-12-27 13:39:00,
2014-12-27 08:54:00,40.6,40.0,30.34,NE,48,1.0,1.0,98,0.00,,,0.00,weatherlink.com 1.10,2014-12-27 13:54:00,
2014-12-27 09:10:00,43.2,43.0,30.33,ESE,105,1.0,4.0,98,0.00,,,0.00,weatherlink.com 1.10,2014-12-27 14:10:00,
2014-12-27 09:25:00,45.4,44.0,30.34,ESE,107,2.0,2.0,95,0.00,,,0.00,weatherlink.com 1.10,2014-12-27 14:25:00,
2014-12-27 09:40:00,48.2,44.0,30.34,SE,130,3.0,7.0,84,0.00,,,0.00,weatherlink.com 1.10,2014-12-27 14:40:00,
2014-12-27 09:55:00,50.5,44.0,30.34,ESE,113,2.0,6.0,77,0.00,,,0.00,weatherlink.com 1.10,2014-12-27 14:55:00,
2014-12-27 10:10:00,52.6,44.0,30.35,ESE,110,2.0,7.0,73,0.00,,,0.00,weatherlink.com 1.10,2014-12-27 15:10:00,
2014-12-27 10:25:00,54.7,45.0,30.36,ESE,107,3.0,8.0,71,0.00,,,0.00,weatherlink.com 1.10,2014-12-27 15:25:00,
2014-12-27 10:40:00,55.9,45.0,30.36,SE,135,4.0,4.0,66,0.00,,,0.00,weatherlink.com 1.10,2014-12-27 15:40:00,
2014-12-27 10:55:00,57.1,45.0,30.36,NNE,26,1.0,5.0,65,0.00,,,0.00,weatherlink.com 1.10,2014-12-27 15:55:00,
2014-12-27 11:10:00,57.3,46.0,30.34,North,355,2.0,4.0,66,0.00,,,0.00,weatherlink.com 1.10,2014-12-27 16:10:00,
2014-12-27 11:25:00,58.2,47.0,30.34,NW,319,2.0,5.0,67,0.00,,,0.00,weatherlink.com 1.10,2014-12-27 16:25:00,
2014-12-27 11:40:00,58.8,47.0,30.32,NNE,23,1.0,4.0,66,0.00,,,0.00,weatherlink.com 1.10,2014-12-27 16:40:00,
2014-12-27 11:55:00,59.8,48.0,30.29,East,91,2.0,8.0,66,0.00,,,0.00,weatherlink.com 1.10,2014-12-27 16:55:00,
2014-12-27 12:10:00,61.0,49.0,30.28,North,355,3.0,5.0,64,0.00,,,0.00,weatherlink.com 1.10,2014-12-27 17:10:00,
2014-12-27 12:25:00,62.0,49.0,30.27,SE,127,3.0,7.0,62,0.00,,,0.00,weatherlink.com 1.10,2014-12-27 17:25:00,
2014-12-27 12:40:00,62.0,50.0,30.26,NNE,18,3.0,6.0,66,0.00,,,0.00,weatherlink.com 1.10,2014-12-27 17:40:00,
2014-12-27 12:55:00,63.3,50.0,30.26,WSW,239,2.0,5.0,63,0.00,,,0.00,weatherlink.com 1.10,2014-12-27 17:55:00,
2014-12-27 13:10:00,63.8,51.0,30.24,ENE,71,2.0,7.0,64,0.00,,,0.00,weatherlink.com 1.10,2014-12-27 18:10:00,
2014-12-27 13:25:00,64.4,52.0,30.24,East,92,3.0,6.0,64,0.00,,,0.00,weatherlink.com 1.10,2014-12-27 18:25:00,
2014-12-27 13:40:00,65.0,52.0,30.23,SSW,200,2.0,6.0,62,0.00,,,0.00,weatherlink.com 1.10,2014-12-27 18:40:00,
2014-12-27 13:56:00,65.8,52.0,30.22,SSE,167,4.0,7.0,62,0.00,,,0.00,weatherlink.com 1.10,2014-12-27 18:56:00,
2014-12-27 14:11:00,66.1,53.0,30.21,SSE,159,2.0,6.0,63,0.00,,,0.00,weatherlink.com 1.10,2014-12-27 19:11:00,
2014-12-27 14:26:00,66.8,53.0,30.21,SSW,193,2.0,5.0,61,0.00,,,0.00,weatherlink.com 1.10,2014-12-27 19:26:00,
2014-12-27 14:41:00,66.6,53.0,30.21,SW,232,2.0,4.0,62,0.00,,,0.00,weatherlink.com 1.10,2014-12-27 19:41:00,
2014-12-27 14:56:00,66.7,53.0,30.21,South,188,1.0,6.0,62,0.00,,,0.00,weatherlink.com 1.10,2014-12-27 19:56:00,
2014-12-27 15:11:00,67.1,53.0,30.20,SSW,202,2.0,3.0,62,0.00,,,0.00,weatherlink.com 1.10,2014-12-27 20:11:00,
2014-12-27 15:26:00,66.8,54.0,30.20,SW,219,1.0,3.0,63,0.00,,,0.00,weatherlink.com 1.10,2014-12-27 20:26:00,
2014-12-27 15:41:00,66.6,53.0,30.20,SW,219,1.0,3.0,61,0.00,,,0.00,weatherlink.com 1.10,2014-12-27 20:41:00,
2014-12-27 15:56:00,66.5,52.0,30.21,SSE,164,0.0,2.0,61,0.00,,,0.00,weatherlink.com 1.10,2014-12-27 20:56:00,